createdAt,value
2022-10-01T00:01:19.554Z,4.07
2022-10-01T00:03:47.768Z,3.70
2022-10-01T00:06:18.405Z,4.10
2022-10-01T00:08:48.864Z,3.60
2022-10-01T00:11:19.104Z,3.60
2022-10-01T00:13:46.352Z,5.27
2022-10-01T00:16:19.475Z,4.20
2022-10-01T00:18:48.071Z,4.03
2022-10-01T00:21:21.646Z,3.70
2022-10-01T00:23:54.409Z,4.77
2022-10-01T00:26:27.617Z,4.93
2022-10-01T00:29:00.175Z,6.03
2022-10-01T00:31:27.605Z,5.17
2022-10-01T00:33:56.069Z,4.40
2022-10-01T00:36:22.922Z,4.30
2022-10-01T00:38:49.863Z,3.90
2022-10-01T00:41:17.862Z,3.70
2022-10-01T00:43:54.848Z,3.60
2022-10-01T00:46:27.686Z,3.67
2022-10-01T00:49:07.140Z,3.60
2022-10-01T00:51:40.223Z,3.33
2022-10-01T00:54:23.939Z,2.93
2022-10-01T00:56:55.448Z,2.73
2022-10-01T00:59:22.505Z,3.10
2022-10-01T01:01:49.580Z,2.83
2022-10-01T01:04:16.874Z,2.80
2022-10-01T01:06:47.174Z,2.60
2022-10-01T01:09:14.352Z,2.80
2022-10-01T01:11:45.581Z,2.90
2022-10-01T01:14:27.219Z,2.70
2022-10-01T01:17:08.670Z,3.13
2022-10-01T01:19:50.584Z,3.17
2022-10-01T01:22:21.362Z,2.90
2022-10-01T01:24:49.436Z,3.17
2022-10-01T01:27:25.245Z,3.20
2022-10-01T01:30:04.515Z,2.97
2022-10-01T01:32:52.961Z,3.37
2022-10-01T01:35:31.803Z,3.30
2022-10-01T01:38:03.704Z,2.83
2022-10-01T01:40:32.694Z,3.60
2022-10-01T01:43:05.472Z,4.07
2022-10-01T01:45:34.049Z,3.77
2022-10-01T01:48:02.439Z,3.30
2022-10-01T01:50:34.468Z,3.57
2022-10-01T01:53:03.017Z,3.57
2022-10-01T01:55:31.460Z,3.60
2022-10-01T01:57:59.136Z,3.53
2022-10-01T02:00:26.201Z,2.97
2022-10-01T02:02:55.139Z,3.07
2022-10-01T02:05:27.236Z,3.53
2022-10-01T02:08:07.713Z,3.30
2022-10-01T02:10:34.649Z,3.47
2022-10-01T02:13:08.274Z,3.27
2022-10-01T02:16:04.644Z,3.30
2022-10-01T02:18:58.889Z,3.30
2022-10-01T02:21:34.987Z,3.37
2022-10-01T02:24:13.873Z,3.43
2022-10-01T02:26:43.502Z,3.60
2022-10-01T02:29:13.715Z,3.40
2022-10-01T02:31:41.651Z,3.40
2022-10-01T02:34:12.716Z,3.77
2022-10-01T02:36:42.480Z,3.50
2022-10-01T02:39:10.771Z,3.57
2022-10-01T02:41:37.753Z,3.50
2022-10-01T02:44:14.088Z,3.20
2022-10-01T02:46:58.668Z,3.20
2022-10-01T02:49:30.565Z,2.90
2022-10-01T02:52:28.065Z,2.67
2022-10-01T02:55:07.334Z,2.73
2022-10-01T02:57:34.743Z,2.97
2022-10-01T03:00:08.718Z,2.80
2022-10-01T03:02:35.566Z,2.60
2022-10-01T03:05:02.911Z,2.70
2022-10-01T03:07:32.471Z,2.93
2022-10-01T03:09:59.422Z,2.60
2022-10-01T03:12:26.347Z,2.73
2022-10-01T03:14:53.962Z,2.47
2022-10-01T03:17:21.510Z,2.30
2022-10-01T03:19:48.508Z,2.90
2022-10-01T03:22:24.296Z,2.57
2022-10-01T03:24:52.264Z,2.60
2022-10-01T03:27:23.054Z,2.40
2022-10-01T03:29:50.005Z,3.00
2022-10-01T03:32:16.972Z,3.23
2022-10-01T03:34:44.021Z,3.37
2022-10-01T03:37:11.062Z,2.97
2022-10-01T03:39:38.032Z,3.60
2022-10-01T03:42:05.892Z,3.17
2022-10-01T03:44:33.783Z,3.10
2022-10-01T03:47:00.769Z,3.30
2022-10-01T03:49:28.264Z,3.67
2022-10-01T03:51:55.631Z,3.60
2022-10-01T03:54:22.824Z,3.63
2022-10-01T03:56:49.856Z,3.83
2022-10-01T03:59:16.750Z,3.90
2022-10-01T04:01:43.968Z,3.90
2022-10-01T04:04:12.108Z,3.60
2022-10-01T04:06:38.971Z,3.50
2022-10-01T04:09:06.054Z,4.37
2022-10-01T04:11:33.135Z,3.97
2022-10-01T04:14:00.165Z,3.60
2022-10-01T04:16:27.527Z,4.03
2022-10-01T04:18:54.826Z,3.60
2022-10-01T04:21:21.879Z,4.27
2022-10-01T04:23:50.328Z,3.77
2022-10-01T04:26:19.135Z,3.70
2022-10-01T04:28:46.889Z,3.37
2022-10-01T04:31:26.917Z,3.47
2022-10-01T04:33:55.924Z,3.00
2022-10-01T04:36:24.260Z,3.17
2022-10-01T04:38:53.982Z,3.50
2022-10-01T04:41:24.061Z,3.30
2022-10-01T04:43:50.981Z,3.80
2022-10-01T04:46:18.102Z,4.20
2022-10-01T04:48:45.240Z,3.67
2022-10-01T04:51:12.049Z,3.80
2022-10-01T04:53:38.971Z,4.23
2022-10-01T04:56:06.168Z,3.80
2022-10-01T04:58:33.413Z,3.97
2022-10-01T05:01:02.232Z,3.90
2022-10-01T05:03:29.707Z,3.80
2022-10-01T05:05:56.697Z,3.63
2022-10-01T05:08:23.680Z,4.23
2022-10-01T05:10:50.557Z,3.93
2022-10-01T05:13:17.451Z,4.30
2022-10-01T05:15:44.875Z,3.63
2022-10-01T05:18:11.862Z,3.80
2022-10-01T05:20:38.788Z,3.70
2022-10-01T05:23:05.760Z,3.97
2022-10-01T05:25:32.701Z,3.60
2022-10-01T05:28:05.980Z,3.60
2022-10-01T05:30:33.866Z,3.40
2022-10-01T05:33:03.745Z,3.50
2022-10-01T05:35:31.384Z,3.00
2022-10-01T05:38:00.392Z,3.27
2022-10-01T05:40:29.073Z,3.00
2022-10-01T05:42:58.385Z,2.50
2022-10-01T05:45:30.170Z,2.80
2022-10-01T05:48:02.398Z,3.17
2022-10-01T05:50:31.738Z,3.03
2022-10-01T05:53:00.033Z,3.17
2022-10-01T05:55:31.800Z,2.80
2022-10-01T05:58:03.010Z,2.50
2022-10-01T06:00:31.411Z,2.40
2022-10-01T06:02:59.992Z,2.60
2022-10-01T06:05:28.635Z,2.40
2022-10-01T06:07:56.476Z,2.10
2022-10-01T06:10:24.082Z,2.20
2022-10-01T06:12:51.400Z,2.00
2022-10-01T06:15:18.843Z,2.30
2022-10-01T06:17:45.729Z,2.30
2022-10-01T06:20:15.644Z,2.70
2022-10-01T06:22:43.634Z,2.47
2022-10-01T06:25:12.243Z,2.47
2022-10-01T06:27:40.570Z,2.30
2022-10-01T06:30:08.347Z,2.33
2022-10-01T06:32:35.434Z,2.90
2022-10-01T06:35:04.331Z,2.40
2022-10-01T06:37:31.213Z,2.20
2022-10-01T06:39:58.057Z,2.00
2022-10-01T06:42:25.044Z,2.10
2022-10-01T06:44:51.980Z,2.37
2022-10-01T06:47:18.842Z,2.60
2022-10-01T06:49:48.356Z,2.50
2022-10-01T06:52:34.065Z,2.10
2022-10-01T06:55:01.645Z,2.50
2022-10-01T06:57:29.098Z,2.57
2022-10-01T06:59:56.139Z,3.10
2022-10-01T07:02:28.175Z,2.40
2022-10-01T07:04:59.471Z,2.20
2022-10-01T07:07:37.438Z,2.10
2022-10-01T07:10:09.843Z,2.23
2022-10-01T07:12:37.827Z,1.93
2022-10-01T07:15:06.412Z,2.50
2022-10-01T07:17:34.184Z,2.20
2022-10-01T07:20:01.882Z,2.87
2022-10-01T07:22:28.788Z,2.67
2022-10-01T07:24:55.740Z,3.27
2022-10-01T07:27:22.655Z,2.57
2022-10-01T07:29:49.519Z,3.37
2022-10-01T07:32:16.607Z,2.80
2022-10-01T07:34:44.030Z,2.70
2022-10-01T07:37:11.026Z,2.57
2022-10-01T07:39:38.079Z,2.27
2022-10-01T07:42:05.879Z,2.50
2022-10-01T07:44:33.220Z,2.37
2022-10-01T07:47:00.311Z,2.70
2022-10-01T07:49:27.469Z,2.80
2022-10-01T07:51:54.932Z,2.70
2022-10-01T07:54:22.880Z,2.30
2022-10-01T07:56:52.977Z,1.40
2022-10-01T07:59:20.025Z,1.00
2022-10-01T08:01:51.758Z,1.00
2022-10-01T08:04:38.160Z,1.10
2022-10-01T08:07:05.831Z,1.20
2022-10-01T08:09:33.089Z,1.30
2022-10-01T08:12:00.136Z,1.20
2022-10-01T08:14:28.749Z,1.50
2022-10-01T08:16:56.319Z,1.07
2022-10-01T08:19:23.330Z,0.90
2022-10-01T08:21:50.518Z,0.80
2022-10-01T08:24:18.023Z,1.00
2022-10-01T08:26:44.962Z,0.70
2022-10-01T08:29:16.841Z,0.77
2022-10-01T08:31:44.022Z,1.10
2022-10-01T08:34:10.983Z,0.97
2022-10-01T08:36:37.935Z,1.20
2022-10-01T08:39:04.870Z,0.90
2022-10-01T08:42:00.266Z,1.20
2022-10-01T08:44:43.458Z,1.70
2022-10-01T08:47:29.749Z,0.90
2022-10-01T08:50:05.821Z,1.07
2022-10-01T08:52:38.255Z,0.70
2022-10-01T08:55:17.955Z,0.70
2022-10-01T08:57:56.310Z,0.90
2022-10-01T09:00:23.346Z,0.50
2022-10-01T09:02:52.895Z,0.60
2022-10-01T09:05:46.107Z,0.90
2022-10-01T09:08:45.970Z,0.80
2022-10-01T09:11:40.135Z,0.63
2022-10-01T09:14:48.521Z,0.80
2022-10-01T09:17:15.377Z,0.50
2022-10-01T09:20:02.429Z,0.53
2022-10-01T09:22:41.613Z,0.70
2022-10-01T09:25:17.202Z,0.80
2022-10-01T09:27:44.558Z,0.67
2022-10-01T09:30:13.848Z,1.03
2022-10-01T09:32:46.211Z,0.77
2022-10-01T09:35:31.430Z,0.93
2022-10-01T09:38:03.804Z,1.00
2022-10-01T09:40:38.546Z,0.83
2022-10-01T09:43:08.751Z,1.00
2022-10-01T09:45:38.140Z,1.10
2022-10-01T09:48:20.406Z,1.13
2022-10-01T09:50:59.090Z,1.10
2022-10-01T09:53:36.816Z,0.80
2022-10-01T09:56:11.148Z,1.10
2022-10-01T09:58:40.545Z,1.10
2022-10-01T10:01:18.604Z,0.90
2022-10-01T10:03:57.636Z,0.90
2022-10-01T10:06:28.196Z,1.03
2022-10-01T10:08:57.236Z,1.00
2022-10-01T10:11:28.122Z,0.80
2022-10-01T10:14:02.396Z,0.80
2022-10-01T10:16:37.645Z,0.90
2022-10-01T10:19:12.796Z,1.13
2022-10-01T10:21:52.103Z,0.90
2022-10-01T10:24:25.278Z,1.00
2022-10-01T10:26:55.836Z,1.00
2022-10-01T10:29:40.915Z,1.00
2022-10-01T10:32:17.872Z,1.07
2022-10-01T10:34:47.054Z,1.40
2022-10-01T10:37:17.215Z,1.00
2022-10-01T10:39:50.122Z,0.70
2022-10-01T10:42:18.758Z,1.10
2022-10-01T10:44:49.362Z,1.37
2022-10-01T10:47:18.554Z,1.00
2022-10-01T10:49:52.186Z,1.10
2022-10-01T10:52:36.293Z,1.30
2022-10-01T10:55:25.234Z,1.10
2022-10-01T10:57:57.334Z,1.10
2022-10-01T11:00:26.386Z,1.27
2022-10-01T11:02:56.931Z,1.33
2022-10-01T11:05:27.442Z,1.70
2022-10-01T11:07:57.298Z,1.20
2022-10-01T11:10:30.336Z,0.93
2022-10-01T11:13:00.194Z,0.77
2022-10-01T11:15:52.204Z,1.10
2022-10-01T11:18:50.560Z,1.20
2022-10-01T11:21:36.806Z,0.90
2022-10-01T11:24:29.554Z,1.20
2022-10-01T11:27:29.807Z,0.90
2022-10-01T11:30:20.156Z,1.60
2022-10-01T11:32:55.900Z,1.50
2022-10-01T11:35:35.072Z,1.70
2022-10-01T11:38:31.657Z,1.33
2022-10-01T11:41:39.887Z,1.73
2022-10-01T11:44:42.040Z,2.30
2022-10-01T11:47:21.839Z,1.57
2022-10-01T11:50:19.698Z,1.03
2022-10-01T11:52:56.601Z,1.13
2022-10-01T11:55:46.555Z,1.40
2022-10-01T11:58:51.516Z,1.87
2022-10-01T12:01:25.045Z,1.67
2022-10-01T12:04:00.684Z,1.60
2022-10-01T12:06:37.622Z,1.50
2022-10-01T12:09:23.628Z,1.50
2022-10-01T12:12:01.258Z,1.47
2022-10-01T12:14:37.829Z,1.70
2022-10-01T12:17:23.653Z,2.33
2022-10-01T12:19:53.945Z,1.87
2022-10-01T12:22:27.139Z,1.77
2022-10-01T12:24:54.468Z,2.00
2022-10-01T12:28:00.387Z,1.43
2022-10-01T12:30:41.929Z,1.83
2022-10-01T12:33:51.265Z,1.60
2022-10-01T12:36:36.658Z,1.40
2022-10-01T12:39:25.930Z,1.20
2022-10-01T12:42:03.198Z,1.73
2022-10-01T12:44:30.927Z,1.83
2022-10-01T12:46:58.098Z,3.07
2022-10-01T12:49:30.513Z,2.90
2022-10-01T12:52:28.547Z,2.10
2022-10-01T12:55:01.195Z,0.90
2022-10-01T12:58:06.505Z,0.70
2022-10-01T13:00:43.772Z,0.90
2022-10-01T13:03:22.655Z,1.10
2022-10-01T13:06:07.800Z,3.10
2022-10-01T13:08:40.920Z,1.30
2022-10-01T13:11:42.448Z,1.60
2022-10-01T13:14:16.049Z,1.23
2022-10-01T13:16:54.531Z,1.30
2022-10-01T13:20:11.267Z,1.20
2022-10-01T13:23:05.368Z,0.60
2022-10-01T13:26:17.405Z,0.90
2022-10-01T13:29:08.602Z,0.70
2022-10-01T13:31:39.943Z,1.77
2022-10-01T13:34:32.950Z,1.87
2022-10-01T13:37:11.000Z,1.80
2022-10-01T13:39:42.214Z,1.50
2022-10-01T13:42:27.428Z,1.33
2022-10-01T13:44:58.487Z,2.00
2022-10-01T13:47:26.505Z,1.70
2022-10-01T13:50:00.144Z,0.40
2022-10-01T13:52:28.067Z,0.90
2022-10-01T13:54:56.904Z,1.30
2022-10-01T13:57:29.617Z,0.43
2022-10-01T14:00:11.557Z,0.20
2022-10-01T14:02:41.521Z,0.50
2022-10-01T14:05:17.875Z,1.23
2022-10-01T14:07:48.394Z,0.53
2022-10-01T14:10:16.434Z,0.80
2022-10-01T14:13:05.453Z,1.00
2022-10-01T14:16:00.252Z,1.00
2022-10-01T14:18:33.077Z,0.50
2022-10-01T14:21:25.750Z,0.80
2022-10-01T14:24:28.055Z,0.70
2022-10-01T14:27:16.603Z,1.27
2022-10-01T14:29:49.316Z,1.23
2022-10-01T14:32:31.414Z,0.83
2022-10-01T14:35:28.088Z,1.10
2022-10-01T14:38:11.238Z,1.20
2022-10-01T14:40:40.886Z,0.87
2022-10-01T14:43:27.285Z,0.67
2022-10-01T14:49:35.839Z,0.80
2022-10-01T14:52:21.697Z,0.40
2022-10-01T14:55:13.194Z,0.63
2022-10-01T14:57:43.679Z,0.20
2022-10-01T15:00:22.906Z,0.80
2022-10-01T15:02:52.656Z,0.57
2022-10-01T15:05:22.909Z,0.40
2022-10-01T15:07:50.118Z,0.43
2022-10-01T15:10:19.694Z,0.80
2022-10-01T15:12:50.337Z,0.70
2022-10-01T15:15:42.526Z,0.60
2022-10-01T15:18:15.708Z,0.80
2022-10-01T15:21:12.957Z,0.47
2022-10-01T15:23:41.425Z,4.30
2022-10-01T15:26:12.530Z,1.40
2022-10-01T15:28:39.770Z,0.70
2022-10-01T15:31:07.361Z,0.77
2022-10-01T15:33:36.962Z,0.70
2022-10-01T15:36:16.500Z,1.27
2022-10-01T15:39:21.119Z,0.70
2022-10-01T15:42:20.453Z,0.40
2022-10-01T15:44:49.237Z,0.50
2022-10-01T15:47:34.613Z,0.50
2022-10-01T15:50:03.299Z,0.80
2022-10-01T15:52:52.454Z,0.60
2022-10-01T15:55:49.518Z,0.50
2022-10-01T15:58:24.727Z,0.80
2022-10-01T16:01:06.980Z,0.50
2022-10-01T16:03:38.847Z,0.63
2022-10-01T16:06:15.749Z,1.00
2022-10-01T16:09:12.215Z,1.40
2022-10-01T16:11:58.965Z,2.30
2022-10-01T16:14:43.829Z,1.60
2022-10-01T16:17:17.008Z,1.73
2022-10-01T16:19:45.877Z,2.70
2022-10-01T16:22:32.481Z,1.30
2022-10-01T16:25:03.807Z,1.50
2022-10-01T16:27:49.247Z,0.90
2022-10-01T16:30:21.900Z,1.40
2022-10-01T16:32:49.438Z,1.20
2022-10-01T16:35:17.000Z,1.10
2022-10-01T16:37:45.607Z,2.03
2022-10-01T16:40:16.260Z,1.80
2022-10-01T16:42:45.679Z,2.77
2022-10-01T16:45:18.819Z,1.40
2022-10-01T16:47:46.363Z,0.87
2022-10-01T16:50:16.966Z,1.50
2022-10-01T16:52:44.071Z,2.30
2022-10-01T16:55:35.894Z,2.10
2022-10-01T16:58:04.180Z,1.20
2022-10-01T17:00:32.209Z,1.10
2022-10-01T17:03:02.385Z,1.10
2022-10-01T17:05:32.613Z,1.10
2022-10-01T17:08:01.305Z,1.37
2022-10-01T17:10:31.669Z,1.00
2022-10-01T17:12:59.586Z,1.50
2022-10-01T17:15:27.946Z,1.93
2022-10-01T17:17:56.818Z,1.80
2022-10-01T17:20:26.491Z,1.30
2022-10-01T17:22:53.371Z,1.13
2022-10-01T17:25:26.087Z,2.10
2022-10-01T17:27:53.003Z,3.70
2022-10-01T17:30:20.163Z,1.50
2022-10-01T17:32:46.989Z,1.00
2022-10-01T17:35:15.735Z,1.13
2022-10-01T17:37:43.064Z,1.07
2022-10-01T17:40:10.797Z,2.40
2022-10-01T17:42:37.719Z,9.87
2022-10-01T17:45:08.461Z,6.97
2022-10-01T17:47:35.991Z,2.10
2022-10-01T17:50:03.384Z,2.97
2022-10-01T17:52:32.185Z,3.93
2022-10-01T17:54:59.110Z,11.50
2022-10-01T17:57:26.110Z,19.30
2022-10-01T17:59:53.057Z,26.93
2022-10-01T18:02:40.437Z,2.10
2022-10-01T18:05:09.519Z,1.10
2022-10-01T18:07:37.300Z,1.80
2022-10-01T18:10:06.168Z,1.50
2022-10-01T18:12:33.841Z,1.00
2022-10-01T18:15:01.754Z,0.70
2022-10-01T18:17:29.292Z,0.83
2022-10-01T18:19:57.155Z,0.97
2022-10-01T18:22:24.466Z,1.20
2022-10-01T18:24:51.562Z,1.53
2022-10-01T18:27:18.554Z,9.63
2022-10-01T18:29:45.468Z,12.03
2022-10-01T18:32:20.932Z,1.90
2022-10-01T18:34:50.615Z,2.30
2022-10-01T18:37:37.637Z,0.70
2022-10-01T18:40:33.478Z,0.80
2022-10-01T18:43:08.547Z,1.13
2022-10-01T18:45:44.683Z,0.50
2022-10-01T18:48:17.424Z,0.77
2022-10-01T18:50:53.308Z,0.50
2022-10-01T18:53:29.305Z,0.50
2022-10-01T18:56:09.278Z,0.43
2022-10-01T18:58:45.214Z,0.70
2022-10-01T19:01:21.503Z,0.40
2022-10-01T19:04:00.718Z,0.50
2022-10-01T19:07:01.794Z,0.73
2022-10-01T19:09:48.355Z,0.73
2022-10-01T19:12:42.906Z,0.70
2022-10-01T19:15:20.168Z,1.40
2022-10-01T19:18:05.908Z,1.43
2022-10-01T19:20:51.469Z,5.50
2022-10-01T19:23:45.925Z,7.80
2022-10-01T19:26:18.941Z,0.70
2022-10-01T19:29:14.008Z,0.87
2022-10-01T19:31:56.169Z,0.80
2022-10-01T19:34:50.490Z,0.83
2022-10-01T19:37:38.674Z,1.10
2022-10-01T19:40:26.366Z,0.90
2022-10-01T19:43:22.900Z,0.70
2022-10-01T19:46:13.067Z,0.77
2022-10-01T19:48:55.181Z,1.10
2022-10-01T19:51:27.546Z,0.90
2022-10-01T19:54:00.979Z,0.90
2022-10-01T19:56:34.035Z,0.90
2022-10-01T19:59:14.385Z,1.00
2022-10-01T20:02:29.721Z,0.93
2022-10-01T20:05:07.064Z,1.10
2022-10-01T20:07:58.547Z,1.00
2022-10-01T20:10:30.054Z,1.30
2022-10-01T20:13:24.224Z,1.30
2022-10-01T20:16:00.223Z,1.60
2022-10-01T20:18:39.385Z,2.27
2022-10-01T20:21:25.295Z,1.60
2022-10-01T20:24:28.777Z,1.30
2022-10-01T20:27:11.691Z,1.60
2022-10-01T20:29:58.685Z,1.30
2022-10-01T20:32:33.027Z,1.40
2022-10-01T20:35:18.512Z,2.30
2022-10-01T20:38:11.279Z,4.23
2022-10-01T20:40:53.240Z,9.47
2022-10-01T20:43:31.238Z,2.70
2022-10-01T20:46:02.409Z,1.67
2022-10-01T20:48:43.479Z,1.50
2022-10-01T20:51:15.863Z,1.40
2022-10-01T20:54:09.116Z,1.67
2022-10-01T20:56:49.487Z,1.77
2022-10-01T20:59:27.422Z,1.10
2022-10-01T21:02:02.440Z,1.27
2022-10-01T21:04:34.159Z,1.17
2022-10-01T21:07:21.088Z,1.47
2022-10-01T21:09:50.560Z,1.10
2022-10-01T21:12:26.941Z,1.03
2022-10-01T21:14:56.809Z,1.10
2022-10-01T21:17:45.002Z,1.60
2022-10-01T21:20:15.142Z,1.47
2022-10-01T21:23:00.417Z,1.13
2022-10-01T21:26:03.201Z,1.37
2022-10-01T21:28:45.367Z,1.10
2022-10-01T21:31:24.359Z,1.40
2022-10-01T21:34:03.103Z,1.80
2022-10-01T21:36:37.170Z,1.40
2022-10-01T21:39:56.937Z,1.40
2022-10-01T21:42:47.804Z,1.30
2022-10-01T21:45:43.160Z,1.00
2022-10-01T21:48:14.557Z,1.30
2022-10-01T21:50:55.384Z,1.00
2022-10-01T21:53:52.459Z,1.13
2022-10-01T21:56:26.508Z,1.10
2022-10-01T21:59:35.999Z,1.20
2022-10-01T22:02:18.208Z,0.90
2022-10-01T22:05:02.628Z,1.37
2022-10-01T22:07:47.507Z,1.30
2022-10-01T22:10:59.104Z,1.23
2022-10-01T22:13:29.803Z,1.30
2022-10-01T22:16:07.714Z,1.50
2022-10-01T22:18:47.161Z,1.30
2022-10-01T22:21:25.909Z,1.07
2022-10-01T22:24:03.828Z,1.30
2022-10-01T22:26:34.114Z,1.40
2022-10-01T22:29:02.728Z,1.23
2022-10-01T22:31:35.111Z,1.30
2022-10-01T22:34:07.470Z,1.30
2022-10-01T22:36:40.194Z,1.23
2022-10-01T22:39:19.222Z,1.57
2022-10-01T22:41:56.035Z,1.40
2022-10-01T22:44:23.931Z,1.53
2022-10-01T22:47:09.237Z,1.47
2022-10-01T22:50:00.385Z,1.60
2022-10-01T22:52:30.964Z,1.10
2022-10-01T22:55:03.999Z,1.40
2022-10-01T22:57:48.532Z,1.57
2022-10-01T23:00:16.549Z,1.30
2022-10-01T23:02:54.526Z,1.27
2022-10-01T23:05:40.059Z,1.30
2022-10-01T23:08:19.211Z,1.60
2022-10-01T23:10:57.164Z,1.50
2022-10-01T23:13:48.801Z,1.30
2022-10-01T23:16:34.262Z,1.30
2022-10-01T23:19:38.930Z,1.60
2022-10-01T23:22:08.947Z,1.07
2022-10-01T23:25:06.266Z,1.30
2022-10-01T23:27:44.491Z,0.90
2022-10-01T23:30:19.634Z,1.23
2022-10-01T23:32:58.570Z,0.97
2022-10-01T23:35:57.993Z,1.40
2022-10-01T23:38:42.918Z,1.33
2022-10-01T23:41:25.613Z,1.30
2022-10-01T23:43:57.489Z,1.20
2022-10-01T23:46:31.194Z,1.17
2022-10-01T23:49:17.291Z,1.00
2022-10-01T23:52:08.535Z,1.07
2022-10-01T23:54:47.735Z,1.50
2022-10-01T23:57:37.783Z,1.10
